Main page
METAR-TAF:

METAR-TAF

Airports :

Athens, Greece

Athens International Airport

latitude: 37-56N, longitude: 023-56E, elevation: 94 m

Current weather observation

The report was made 24 minutes ago, at 01:50 UTC
Wind 7 kt from the North
Temperature 26°C
Humidity 34%
Pressure 1012 hPa
Visibility 10 km or more
no clouds below 1500 m and no cumulonimbus

METAR: LGAV 200150Z 01007KT CAVOK 26/09 Q1012 NOSIG

Time: 05:14 (02:14 UTC)

Forecast

The report was made 3 hours and 14 minutes ago, at 23:00 UTC
Forecast valid from 20 at 00 UTC to 20 at 24 UTC
Wind 3 kt from variable directions
Visibility 10 km or more
Few clouds at a height of 2500 ft
Becoming
from 20 at 04 UTC to 20 at 06 UTC
Wind 13 kt from the North/Northeast

TAF: LGAV 192300Z 2000/2024 VRB03KT 9999 FEW025 BECMG 2004/2006 02013KT

Weather observations and forecasts of more than 4000 airports (METAR and TAF reports).

The available stations are represented by yellow and red dots on the map.

Hover mouse over dot to see the name of the station.

Then click to see weather observations and forecasts.

To change the map : click on the green buttons with a black cross to zoom in, on the green button with a dash to zoom out, or on the green arrows for adjacent maps.


METAR-TAF: